Time;durP1;ratioP1;P1;durP2;ratioP2;P2;SDS_P1;SDS_P2;PMS_P1;PMS_P2;Temp;Humidity;BMP_temperature;BMP_pressure;BME280_temperature;BME280_humidity;BME280_pressure;Samples;Min_cycle;Max_cycle;Signal;HPM_P1;HPM_P2
2022/05/29 00:01:02;;;;;;;;;2.00;2.00;;;;;14.35;45.78;101144.97;5023663;28;45583;-78
2022/05/29 00:03:28;;;;;;;;;1.00;1.00;;;;;14.34;45.97;101151.19;5014287;28;45892;-78
2022/05/29 00:05:53;;;;;;;;;1.00;1.00;;;;;14.33;45.77;101152.13;5031626;28;45585;-78
2022/05/29 00:08:27;;;;;;;;;1.75;1.75;;;;;14.28;46.14;101147.22;5023033;28;45921;-78
2022/05/29 00:10:54;;;;;;;;;1.75;1.00;;;;;14.24;46.00;101137.88;5029655;28;46418;-79
2022/05/29 00:13:20;;;;;;;;;1.75;1.00;;;;;14.12;46.13;101125.66;5035146;28;45915;-79
2022/05/29 00:15:45;;;;;;;;;2.00;1.00;;;;;14.18;46.36;101131.28;5044646;28;45699;-78
2022/05/29 00:18:11;;;;;;;;;2.00;2.00;;;;;14.21;46.25;101133.69;5033053;28;48292;-78
2022/05/29 00:20:38;;;;;;;;;1.00;0.75;;;;;14.19;46.25;101140.88;5033699;28;45954;-80
2022/05/29 00:23:04;;;;;;;;;2.00;1.00;;;;;14.16;46.48;101135.00;5045285;28;45934;-79
2022/05/29 00:25:29;;;;;;;;;2.00;1.00;;;;;14.14;47.05;101135.09;5051286;28;45750;-79
2022/05/29 00:27:55;;;;;;;;;2.00;1.00;;;;;14.12;46.58;101134.41;5050928;28;46529;-79
2022/05/29 00:30:20;;;;;;;;;2.25;1.00;;;;;13.99;46.82;101115.22;5051599;28;46064;-80
2022/05/29 00:32:46;;;;;;;;;1.00;1.00;;;;;14.06;46.66;101139.31;5051358;28;45700;-78
2022/05/29 00:35:11;;;;;;;;;1.00;1.00;;;;;14.02;47.10;101133.44;5051231;28;45622;-79
2022/05/29 00:37:40;;;;;;;;;1.75;1.00;;;;;13.81;47.52;101104.31;5050376;28;46028;-79
2022/05/29 00:40:21;;;;;;;;;2.00;2.00;;;;;13.82;47.53;101113.03;5051518;28;46514;-79
2022/05/29 00:42:46;;;;;;;;;1.00;1.00;;;;;13.85;47.33;101123.34;5051232;28;45657;-79
2022/05/29 00:45:21;;;;;;;;;1.00;0.75;;;;;13.86;47.43;101122.41;5032888;28;45552;-79
2022/05/29 00:47:47;;;;;;;;;1.00;1.00;;;;;13.89;47.30;101132.69;5050230;28;45698;-79
2022/05/29 00:50:18;;;;;;;;;1.00;1.00;;;;;13.82;47.73;101126.19;5051340;28;45942;-78
2022/05/29 00:52:44;;;;;;;;;4.00;1.00;;;;;13.78;47.61;101116.88;5051175;28;46193;-79
2022/05/29 00:55:21;;;;;;;;;2.00;1.00;;;;;13.72;47.71;101112.91;5045902;28;45602;-79
2022/05/29 00:57:52;;;;;;;;;1.00;0.00;;;;;13.67;48.15;101106.31;5023169;28;47156;-78
2022/05/29 01:00:25;;;;;;;;;3.00;1.00;;;;;13.77;48.14;101130.97;5050698;28;46177;-78
2022/05/29 01:02:51;;;;;;;;;1.00;1.00;;;;;13.61;48.08;101106.78;5050311;28;45800;-79
2022/05/29 01:05:19;;;;;;;;;1.00;1.00;;;;;13.70;48.76;101132.44;5034403;28;45686;-78
2022/05/29 01:07:49;;;;;;;;;0.00;0.00;;;;;13.66;48.17;101131.78;5020951;28;47887;-78
2022/05/29 01:10:15;;;;;;;;;1.00;1.00;;;;;13.60;48.25;101113.00;5042666;28;46076;-79
2022/05/29 01:12:52;;;;;;;;;1.00;1.00;;;;;13.59;48.20;101121.88;5031179;28;45815;-79
2022/05/29 01:15:36;;;;;;;;;1.00;1.00;;;;;13.55;49.25;101120.41;5022434;28;45725;-79
2022/05/29 01:18:36;;;;;;;;;1.25;1.00;;;;;13.49;48.36;101118.25;5028998;28;46589;-79
2022/05/29 01:21:10;;;;;;;;;1.00;1.00;;;;;13.46;49.66;101114.03;5025077;28;46126;-79
2022/05/29 01:23:42;;;;;;;;;1.00;1.00;;;;;13.41;49.57;101101.22;5012642;28;45792;-79
2022/05/29 01:26:58;;;;;;;;;1.00;1.00;;;;;13.23;49.94;101084.16;5011809;28;45793;-79
2022/05/29 01:29:35;;;;;;;;;1.00;1.00;;;;;13.31;49.83;101105.50;4927331;28;46051;-79
2022/05/29 01:32:11;;;;;;;;;2.00;2.00;;;;;13.21;50.36;101087.88;4930491;28;46101;-80
2022/05/29 01:34:46;;;;;;;;;1.00;1.00;;;;;13.22;50.34;101098.31;4929416;28;45617;-79
2022/05/29 01:37:26;;;;;;;;;1.00;1.00;;;;;13.16;50.66;101098.75;4930141;28;45615;-76
2022/05/29 01:40:10;;;;;;;;;1.00;1.00;;;;;13.09;50.80;101089.59;4912039;28;46136;-79
2022/05/29 01:42:46;;;;;;;;;0.25;0.25;;;;;13.04;50.87;101092.56;4945502;28;47279;-79
2022/05/29 01:45:54;;;;;;;;;2.00;2.00;;;;;13.02;51.46;101101.50;4929402;28;45856;-77
2022/05/29 01:48:27;;;;;;;;;1.00;0.00;;;;;12.89;51.89;101088.44;4918061;28;45761;-78
2022/05/29 01:50:58;;;;;;;;;1.00;1.00;;;;;12.87;52.27;101095.59;4929762;28;46030;-79
2022/05/29 01:53:31;;;;;;;;;1.00;1.00;;;;;12.77;52.44;101076.16;4929769;28;46106;-79
2022/05/29 01:56:03;;;;;;;;;4.25;2.00;;;;;12.83;52.14;101088.03;4928648;28;46231;-79
2022/05/29 01:58:44;;;;;;;;;2.00;1.25;;;;;12.67;53.15;101075.16;4929604;28;45841;-79
2022/05/29 02:01:13;;;;;;;;;0.00;0.00;;;;;12.63;52.56;101073.72;4929664;28;46750;-78
2022/05/29 02:03:52;;;;;;;;;1.00;1.00;;;;;12.69;53.05;101096.91;4937554;28;46137;-80
2022/05/29 02:09:27;;;;;;;;;1.00;1.00;;;;;12.57;53.01;101075.00;5030011;28;45732;-79
2022/05/29 02:11:58;;;;;;;;;2.00;1.00;;;;;12.58;52.72;101092.41;5029689;28;45770;-79
2022/05/29 02:14:31;;;;;;;;;1.00;1.00;;;;;12.55;52.92;101078.66;5011300;28;47133;-78
2022/05/29 02:17:03;;;;;;;;;0.00;0.00;;;;;12.45;53.42;101070.59;5024427;28;45821;-77
2022/05/29 02:19:33;;;;;;;;;1.00;1.00;;;;;12.50;53.97;101079.00;5027700;28;45686;-78
2022/05/29 02:22:12;;;;;;;;;2.00;1.00;;;;;12.46;53.63;101079.34;5029813;28;45987;-78
2022/05/29 02:24:43;;;;;;;;;2.00;2.00;;;;;12.49;53.45;101084.34;5029658;28;46028;-78
2022/05/29 02:27:26;;;;;;;;;1.00;1.00;;;;;12.47;54.07;101084.47;5029494;28;45823;-80
2022/05/29 02:29:53;;;;;;;;;1.50;1.00;;;;;12.42;53.98;101072.59;5029845;28;45732;-78
2022/05/29 02:32:34;;;;;;;;;2.00;2.00;;;;;12.47;53.87;101073.94;5029978;28;45989;-79
2022/05/29 02:35:06;;;;;;;;;2.00;1.00;;;;;12.42;54.54;101070.81;5018224;28;46195;-78
2022/05/29 02:37:46;;;;;;;;;1.75;1.25;;;;;12.45;54.22;101067.97;5032415;28;45957;-79
2022/05/29 02:40:33;;;;;;;;;1.00;0.75;;;;;12.44;53.95;101065.44;5033419;28;45738;-79
2022/05/29 02:43:20;;;;;;;;;2.25;2.00;;;;;12.43;54.49;101069.88;5032954;28;46682;-79
2022/05/29 02:46:17;;;;;;;;;1.00;1.00;;;;;12.40;54.57;101064.84;5032397;28;46323;-79
2022/05/29 02:48:54;;;;;;;;;1.50;1.00;;;;;12.38;55.27;101065.88;5033065;28;45694;-79
2022/05/29 02:51:29;;;;;;;;;1.00;1.00;;;;;12.29;54.84;101059.50;5004374;28;45948;-78
2022/05/29 02:53:54;;;;;;;;;1.50;1.50;;;;;12.21;54.93;101048.69;5032224;28;45868;-78
2022/05/29 02:56:20;;;;;;;;;3.50;2.00;;;;;12.26;55.31;101056.25;5032471;28;45767;-79
2022/05/29 02:58:50;;;;;;;;;3.00;3.00;;;;;12.17;55.74;101048.06;5033024;28;45670;-78
2022/05/29 03:01:38;;;;;;;;;2.75;2.00;;;;;12.19;55.79;101063.75;5032921;28;45745;-77
2022/05/29 03:04:03;;;;;;;;;1.00;1.00;;;;;12.13;55.83;101051.03;5032207;28;45711;-79
2022/05/29 03:06:35;;;;;;;;;1.75;1.00;;;;;12.09;55.81;101060.91;5032164;28;46111;-79
2022/05/29 03:09:31;;;;;;;;;2.00;1.00;;;;;12.07;56.03;101048.84;5020157;28;45707;-78
2022/05/29 03:11:57;;;;;;;;;2.00;2.00;;;;;12.01;55.97;101047.47;5022065;28;45740;-79
2022/05/29 03:14:41;;;;;;;;;1.00;1.00;;;;;12.05;56.40;101058.59;5023733;28;45747;-78
2022/05/29 03:17:50;;;;;;;;;1.00;1.00;;;;;12.03;56.54;101056.09;5023521;28;47223;-79
2022/05/29 03:20:40;;;;;;;;;2.00;1.25;;;;;11.97;56.25;101046.03;5026021;28;45661;-79
2022/05/29 03:23:32;;;;;;;;;1.00;1.00;;;;;11.97;56.33;101055.69;5026108;28;46261;-78
2022/05/29 03:26:03;;;;;;;;;1.75;1.00;;;;;11.93;56.39;101039.28;5024864;28;45695;-78
2022/05/29 03:28:45;;;;;;;;;2.25;1.00;;;;;11.92;56.26;101039.41;5024344;28;46507;-78
2022/05/29 03:31:17;;;;;;;;;2.00;2.00;;;;;11.94;56.35;101043.59;5026436;28;45654;-78
2022/05/29 03:33:46;;;;;;;;;1.00;1.00;;;;;11.85;56.36;101025.03;5017432;28;45488;-78
2022/05/29 03:36:15;;;;;;;;;3.00;1.75;;;;;11.96;56.66;101041.72;5029350;28;45873;-77
2022/05/29 03:38:40;;;;;;;;;3.00;2.00;;;;;11.93;56.31;101033.22;5032664;28;46156;-77
2022/05/29 03:41:13;;;;;;;;;2.00;2.00;;;;;11.95;56.51;101039.19;5000815;28;45907;-78
2022/05/29 03:43:40;;;;;;;;;1.50;1.00;;;;;11.87;56.64;101031.84;5029971;28;45762;-78
2022/05/29 03:46:06;;;;;;;;;3.00;2.00;;;;;11.88;56.10;101035.28;5017444;28;45665;-77
2022/05/29 03:48:32;;;;;;;;;1.00;1.00;;;;;11.85;56.52;101030.28;5020403;28;46287;-79
2022/05/29 03:51:06;;;;;;;;;2.00;1.00;;;;;11.89;56.36;101042.22;5025484;28;45867;-78
2022/05/29 03:53:36;;;;;;;;;1.75;1.50;;;;;11.91;57.11;101038.56;5006620;28;45634;-79
2022/05/29 03:56:03;;;;;;;;;2.50;1.50;;;;;11.89;57.06;101047.47;5025897;28;45715;-78
2022/05/29 03:58:28;;;;;;;;;3.00;1.75;;;;;11.86;56.86;101043.31;5024718;28;46234;-78
2022/05/29 04:00:53;;;;;;;;;1.00;1.00;;;;;11.83;57.39;101032.16;5004516;28;45709;-79
2022/05/29 04:03:19;;;;;;;;;1.25;1.25;;;;;11.74;57.15;101036.25;5025551;28;45726;-78
2022/05/29 04:05:45;;;;;;;;;1.50;1.00;;;;;11.77;57.62;101044.75;5017398;28;46332;-79
2022/05/29 04:13:42;;;;;;;;;2.00;1.50;;;;;11.70;57.31;101046.13;5044615;28;46055;-78
2022/05/29 04:16:08;;;;;;;;;2.00;2.00;;;;;11.62;57.35;101031.81;5038629;28;45554;-77
2022/05/29 04:18:33;;;;;;;;;2.00;1.00;;;;;11.66;57.32;101030.69;5051148;28;45803;-78
2022/05/29 04:20:59;;;;;;;;;2.00;1.75;;;;;11.68;57.17;101049.78;5039484;28;45888;-79
2022/05/29 04:23:24;;;;;;;;;1.00;1.00;;;;;11.65;57.59;101029.84;5036166;28;46176;-78
2022/05/29 04:25:50;;;;;;;;;2.00;1.00;;;;;11.63;58.05;101036.97;5030867;28;46395;-77
2022/05/29 04:28:16;;;;;;;;;2.00;2.00;;;;;11.65;57.82;101048.22;5045511;28;46540;-78
2022/05/29 04:30:41;;;;;;;;;1.25;1.00;;;;;11.59;57.66;101034.66;5039882;28;45832;-78
2022/05/29 04:33:07;;;;;;;;;2.00;1.00;;;;;11.56;57.45;101033.06;5040379;28;45938;-76
2022/05/29 04:35:39;;;;;;;;;1.25;1.25;;;;;11.59;57.55;101025.00;5032042;28;45871;-78
2022/05/29 04:38:06;;;;;;;;;1.25;1.00;;;;;11.60;57.95;101034.56;5051354;28;45809;-79
2022/05/29 04:40:31;;;;;;;;;1.00;1.00;;;;;11.58;57.83;101036.44;5051461;28;45812;-78
2022/05/29 04:42:57;;;;;;;;;1.75;1.50;;;;;11.53;57.63;101014.94;5045285;28;45726;-78
2022/05/29 04:45:23;;;;;;;;;2.00;2.00;;;;;11.61;57.99;101038.84;5039458;28;45697;-78
2022/05/29 04:47:49;;;;;;;;;3.75;3.00;;;;;11.45;58.23;101011.97;5044252;28;46176;-79
2022/05/29 04:50:14;;;;;;;;;2.00;1.75;;;;;11.52;58.35;101033.41;5031410;28;45754;-78
2022/05/29 04:52:40;;;;;;;;;2.25;1.00;;;;;11.47;59.02;101033.72;5044128;28;45533;-77
2022/05/29 04:55:07;;;;;;;;;2.00;2.00;;;;;11.40;58.20;101018.47;5031911;28;46060;-79
2022/05/29 04:57:32;;;;;;;;;1.00;1.00;;;;;11.48;58.65;101024.91;5048603;28;46154;-78
2022/05/29 04:59:58;;;;;;;;;2.50;2.00;;;;;11.47;58.72;101033.72;5043821;28;45630;-79
2022/05/29 05:02:25;;;;;;;;;1.25;1.00;;;;;11.46;58.54;101029.41;5034972;28;45996;-78
2022/05/29 05:04:51;;;;;;;;;1.75;1.00;;;;;11.44;58.33;101022.59;5043920;28;46497;-78
2022/05/29 05:07:16;;;;;;;;;1.25;1.25;;;;;11.49;58.64;101020.50;5038195;28;46337;-78
2022/05/29 05:09:41;;;;;;;;;2.50;2.00;;;;;11.37;58.73;101014.28;5050699;28;46176;-78
2022/05/29 05:12:07;;;;;;;;;2.00;2.00;;;;;11.52;58.83;101049.13;5044259;28;45744;-76
2022/05/29 05:14:34;;;;;;;;;2.00;2.00;;;;;11.47;58.43;101027.63;5040581;28;46805;-78
2022/05/29 05:17:00;;;;;;;;;1.25;1.25;;;;;11.51;58.69;101036.97;5037178;28;46256;-78
2022/05/29 05:19:26;;;;;;;;;2.00;1.50;;;;;11.41;59.08;101018.38;5039939;28;45819;-78
2022/05/29 05:21:51;;;;;;;;;2.00;2.00;;;;;11.43;58.81;101023.53;5043897;28;45818;-79
2022/05/29 05:24:17;;;;;;;;;2.25;2.00;;;;;11.46;58.85;101032.03;5046654;28;46487;-79
2022/05/29 05:26:43;;;;;;;;;2.25;1.50;;;;;11.53;58.91;101043.78;5033558;28;45710;-79
2022/05/29 05:29:09;;;;;;;;;4.50;2.25;;;;;11.43;58.58;101019.13;5032460;28;45653;-79
2022/05/29 05:31:34;;;;;;;;;2.00;2.00;;;;;11.49;59.26;101037.09;5050269;28;45704;-78
2022/05/29 05:34:10;;;;;;;;;3.00;2.25;;;;;11.46;58.82;101023.31;5039272;28;45792;-78
2022/05/29 05:36:36;;;;;;;;;3.00;2.00;;;;;11.58;58.82;101040.84;5052886;28;46250;-78
2022/05/29 05:39:10;;;;;;;;;3.00;2.50;;;;;11.50;58.59;101025.63;5053471;28;46026;-78
2022/05/29 05:41:36;;;;;;;;;0.25;0.25;;;;;11.55;58.48;101020.09;5050960;28;45782;-79
2022/05/29 05:44:02;;;;;;;;;2.00;2.00;;;;;11.52;58.51;101021.13;5050196;28;46082;-79
2022/05/29 05:46:28;;;;;;;;;3.00;2.00;;;;;11.62;58.47;101021.31;5050126;28;45854;-78
2022/05/29 05:48:55;;;;;;;;;3.50;3.00;;;;;11.62;58.54;101023.94;5037162;28;46334;-79
2022/05/29 05:51:20;;;;;;;;;2.00;2.00;;;;;11.69;58.31;101030.47;5047967;28;45850;-79
2022/05/29 05:53:45;;;;;;;;;2.00;2.00;;;;;11.57;58.59;101010.31;5048133;28;45718;-78
2022/05/29 05:56:15;;;;;;;;;2.00;2.00;;;;;11.72;58.35;101031.09;5046231;28;46292;-79
2022/05/29 05:58:44;;;;;;;;;2.50;2.00;;;;;11.75;57.97;101037.94;5040404;28;45847;-77
2022/05/29 06:01:13;;;;;;;;;2.00;2.00;;;;;11.72;57.87;101031.09;5048365;28;45745;-78
2022/05/29 06:03:39;;;;;;;;;2.25;2.00;;;;;11.81;58.16;101034.06;5046597;28;46624;-79
2022/05/29 06:06:05;;;;;;;;;2.00;1.75;;;;;11.84;58.16;101033.84;5038832;28;45676;-78
2022/05/29 06:08:30;;;;;;;;;3.00;1.25;;;;;11.84;57.82;101036.47;5053725;28;45911;-78
2022/05/29 06:10:55;;;;;;;;;2.75;2.00;;;;;11.90;57.52;101025.53;5054623;28;46268;-78
2022/05/29 06:13:21;;;;;;;;;2.50;1.00;;;;;11.93;57.64;101034.03;5033205;28;45549;-78
2022/05/29 06:15:47;;;;;;;;;3.50;2.00;;;;;11.87;57.49;101020.50;5047380;28;45758;-78
2022/05/29 06:18:14;;;;;;;;;2.00;2.00;;;;;11.99;57.49;101030.13;5041709;28;45874;-79
2022/05/29 06:20:40;;;;;;;;;2.50;1.75;;;;;11.99;57.46;101027.50;5044409;28;45608;-79
2022/05/29 06:23:05;;;;;;;;;2.00;2.00;;;;;12.03;57.32;101031.63;5027075;28;48305;-78
2022/05/29 06:25:31;;;;;;;;;0.75;0.50;;;;;11.93;57.17;101002.53;5043243;28;46252;-77
2022/05/29 06:27:56;;;;;;;;;3.50;2.00;;;;;12.09;57.05;101020.69;5034845;28;46082;-78
2022/05/29 06:30:22;;;;;;;;;2.50;2.00;;;;;12.00;57.04;101000.31;5050814;28;45748;-78
2022/05/29 06:32:47;;;;;;;;;1.00;1.00;;;;;12.05;56.81;101014.78;5030970;28;46522;-78
2022/05/29 06:35:15;;;;;;;;;1.75;1.75;;;;;12.07;56.51;101018.16;5053090;28;45854;-78
2022/05/29 06:37:41;;;;;;;;;3.00;2.00;;;;;12.14;56.38;101015.94;5052008;28;45796;-78
2022/05/29 06:40:09;;;;;;;;;2.00;1.00;;;;;12.23;56.42;101035.47;5053403;28;45831;-78
2022/05/29 06:42:35;;;;;;;;;3.00;1.75;;;;;12.13;56.41;101012.47;5038157;28;45756;-79
2022/05/29 06:45:01;;;;;;;;;3.00;2.00;;;;;12.17;56.06;101005.22;5052809;28;46438;-78
2022/05/29 06:47:27;;;;;;;;;2.00;1.25;;;;;12.30;56.04;101021.78;5052360;28;45479;-79
2022/05/29 06:49:52;;;;;;;;;2.50;1.00;;;;;12.32;56.01;101019.88;5034822;28;45925;-77
2022/05/29 06:52:19;;;;;;;;;2.75;2.00;;;;;12.46;55.67;101032.03;5043666;28;45659;-78
2022/05/29 06:54:45;;;;;;;;;3.00;1.00;;;;;12.47;55.41;101025.84;5024148;28;47442;-78
2022/05/29 06:57:12;;;;;;;;;2.75;1.25;;;;;12.47;55.24;101024.00;5048113;28;45823;-79
2022/05/29 07:07:59;;;;;;;;;2.00;2.00;;;;;12.71;54.89;101015.31;5052573;28;45828;-78
2022/05/29 07:10:27;;;;;;;;;1.00;1.00;;;;;12.72;54.67;101007.31;5026856;28;45715;-79
2022/05/29 07:12:53;;;;;;;;;2.25;1.00;;;;;12.75;54.28;101016.75;5032527;28;46464;-79
2022/05/29 07:15:18;;;;;;;;;0.25;0.25;;;;;12.68;52.94;100999.78;5013532;28;46167;-78
2022/05/29 07:17:44;;;;;;;;;0.75;0.75;;;;;12.73;53.31;101010.78;5032775;28;46053;-78
2022/05/29 07:20:10;;;;;;;;;1.00;1.00;;;;;12.81;53.09;101019.78;5032401;28;45814;-77
2022/05/29 07:22:36;;;;;;;;;2.00;1.00;;;;;12.82;52.83;101020.63;5032452;28;45578;-78
2022/05/29 07:25:03;;;;;;;;;1.00;1.00;;;;;12.88;52.28;101023.63;5032412;28;45785;-78
2022/05/29 07:27:28;;;;;;;;;3.50;2.00;;;;;12.88;51.92;101015.75;5031991;28;45952;-79
2022/05/29 07:29:54;;;;;;;;;1.00;0.00;;;;;12.88;51.37;101021.00;5032407;28;45538;-78
2022/05/29 07:32:20;;;;;;;;;1.00;0.50;;;;;12.96;51.05;101018.63;5014220;28;47634;-80
2022/05/29 07:34:46;;;;;;;;;2.75;1.50;;;;;12.91;51.40;101007.63;5032152;28;46324;-78
2022/05/29 07:37:14;;;;;;;;;1.00;0.75;;;;;12.93;51.24;101013.63;5032345;28;45697;-79
2022/05/29 07:39:43;;;;;;;;;1.75;1.00;;;;;12.99;50.83;101007.06;5032540;28;45783;-79
2022/05/29 07:44:53;;;;;;;;;1.25;1.00;;;;;13.09;50.29;101020.34;5020925;28;45691;-77
2022/05/29 07:47:23;;;;;;;;;1.50;1.00;;;;;13.10;50.47;101011.50;5031719;28;45755;-78
2022/05/29 07:49:48;;;;;;;;;1.00;1.00;;;;;13.16;50.41;101016.34;5014518;28;46119;-77
2022/05/29 07:52:14;;;;;;;;;2.00;1.00;;;;;13.19;49.56;101009.06;5024923;28;46820;-78
2022/05/29 07:54:40;;;;;;;;;0.25;0.25;;;;;13.25;49.16;100999.84;5031741;28;45670;-78
2022/05/29 07:57:06;;;;;;;;;0.00;0.00;;;;;13.33;48.85;101014.09;5031701;28;45709;-78
2022/05/29 07:59:31;;;;;;;;;1.00;1.00;;;;;13.36;47.73;101013.88;5032332;28;45691;-78
2022/05/29 08:01:56;;;;;;;;;0.75;0.75;;;;;13.32;48.53;100998.44;5031823;28;45579;-78
2022/05/29 08:04:23;;;;;;;;;0.25;0.00;;;;;13.36;46.31;100992.81;5013954;28;47110;-80
2022/05/29 08:06:49;;;;;;;;;2.00;0.50;;;;;13.37;46.97;100994.50;5031777;28;45768;-78
2022/05/29 08:09:15;;;;;;;;;0.00;0.00;;;;;13.56;46.61;101014.13;5031144;28;45774;-79
2022/05/29 08:11:41;;;;;;;;;0.50;0.00;;;;;13.59;46.91;101006.84;5047144;28;45703;-78
2022/05/29 08:14:06;;;;;;;;;0.50;0.50;;;;;13.63;46.72;101007.44;5051359;28;45699;-78
2022/05/29 08:16:33;;;;;;;;;2.00;1.00;;;;;13.68;46.53;101008.78;5050756;28;45728;-78
2022/05/29 08:18:58;;;;;;;;;0.00;0.00;;;;;13.64;46.69;100986.28;5051979;28;46170;-79
2022/05/29 08:21:24;;;;;;;;;0.50;0.25;;;;;13.70;46.53;101000.75;5052140;28;45727;-81
2022/05/29 08:32:02;;;;;;;;;0.25;0.25;;;;;13.89;46.23;100990.44;5040387;28;45908;-79
2022/05/29 08:34:28;;;;;;;;;1.00;1.00;;;;;13.92;47.22;100978.84;5030531;28;48655;-78
2022/05/29 08:36:56;;;;;;;;;0.50;0.00;;;;;14.04;47.04;100991.88;5041690;28;45690;-79
2022/05/29 08:39:23;;;;;;;;;3.00;0.00;;;;;14.06;46.58;100970.69;5051493;28;45556;-79
2022/05/29 08:41:52;;;;;;;;;1.00;0.50;;;;;14.20;45.53;100997.59;5051828;28;46673;-79
2022/05/29 08:44:24;;;;;;;;;1.75;1.00;;;;;14.22;45.24;100984.31;5050672;28;46522;-79
2022/05/29 08:47:00;;;;;;;;;1.00;0.75;;;;;14.24;45.78;100988.50;5051470;28;45713;-79
2022/05/29 08:49:37;;;;;;;;;1.50;1.00;;;;;14.25;45.76;100986.72;5050442;28;45820;-79
2022/05/29 08:52:17;;;;;;;;;1.00;1.00;;;;;14.30;45.68;100985.34;5051304;28;46739;-81
2022/05/29 08:54:47;;;;;;;;;1.50;1.00;;;;;14.33;45.69;100980.81;5050795;28;45933;-80
2022/05/29 08:57:34;;;;;;;;;0.00;0.00;;;;;14.32;45.02;100979.97;5057793;28;45744;-79
2022/05/29 09:00:04;;;;;;;;;1.25;0.50;;;;;14.32;45.43;100976.47;5051120;28;45843;-79
2022/05/29 09:02:57;;;;;;;;;2.00;1.00;;;;;14.32;45.49;100981.75;5050743;28;45622;-79
2022/05/29 09:05:44;;;;;;;;;1.00;1.00;;;;;14.35;45.48;100978.88;5046953;28;46290;-79
2022/05/29 09:08:19;;;;;;;;;1.00;1.00;;;;;14.31;45.37;100973.00;5044874;28;45872;-78
2022/05/29 09:10:52;;;;;;;;;1.00;1.00;;;;;14.31;44.69;100973.00;5039769;28;45774;-79
2022/05/29 09:13:43;;;;;;;;;0.25;0.25;;;;;14.23;44.83;100962.25;5049983;28;46100;-80
2022/05/29 09:16:17;;;;;;;;;1.00;1.00;;;;;14.21;45.65;100949.19;5043074;28;46081;-79
2022/05/29 09:18:50;;;;;;;;;1.75;1.00;;;;;14.29;44.75;100959.97;5051361;28;46351;-80
2022/05/29 09:21:21;;;;;;;;;1.00;0.25;;;;;14.25;44.88;100947.19;5031974;28;45686;-76
2022/05/29 09:24:01;;;;;;;;;1.00;0.00;;;;;14.34;44.92;100958.75;5050027;28;45942;-79
2022/05/29 09:26:34;;;;;;;;;2.00;1.00;;;;;14.28;44.14;100937.22;5049813;28;46297;-80
2022/05/29 09:28:59;;;;;;;;;0.50;0.00;;;;;14.34;43.02;100953.50;5050630;28;45888;-79
2022/05/29 09:31:25;;;;;;;;;1.00;1.00;;;;;14.33;43.21;100936.84;5050252;28;45627;-79
2022/05/29 09:33:51;;;;;;;;;1.00;1.00;;;;;14.34;42.34;100945.59;5050030;28;45700;-79
2022/05/29 09:36:53;;;;;;;;;0.00;0.00;;;;;14.40;42.62;100943.31;5049559;28;46018;-79
2022/05/29 09:39:27;;;;;;;;;0.75;0.75;;;;;14.45;42.63;100949.06;4968551;28;45834;-78
2022/05/29 09:42:01;;;;;;;;;0.00;0.00;;;;;14.52;42.75;100944.13;4969108;28;45778;-79
2022/05/29 09:44:27;;;;;;;;;1.50;1.00;;;;;14.60;43.01;100946.94;4969478;28;45924;-78
2022/05/29 09:46:55;;;;;;;;;0.50;0.50;;;;;14.65;43.20;100932.41;4955764;28;47970;-79
2022/05/29 09:49:41;;;;;;;;;0.00;0.00;;;;;14.71;42.78;100941.63;4971775;28;45871;-78
2022/05/29 09:52:19;;;;;;;;;1.00;1.00;;;;;14.78;42.68;100941.97;4970772;28;45845;-79
2022/05/29 09:54:58;;;;;;;;;1.00;1.00;;;;;14.83;42.79;100939.78;4971673;28;46659;-77
2022/05/29 09:57:29;;;;;;;;;1.00;1.00;;;;;14.89;42.92;100949.81;4951671;28;47183;-79
2022/05/29 10:00:06;;;;;;;;;2.00;1.00;;;;;14.92;42.10;100929.28;4972144;28;45817;-79
2022/05/29 10:02:50;;;;;;;;;2.00;1.00;;;;;14.96;42.65;100935.13;4960659;28;45649;-79
2022/05/29 10:05:26;;;;;;;;;0.50;0.50;;;;;14.98;42.41;100944.59;4970847;28;46479;-80
2022/05/29 10:07:54;;;;;;;;;1.00;1.00;;;;;14.93;42.14;100917.75;4971755;28;45668;-79
2022/05/29 10:10:22;;;;;;;;;1.00;1.00;;;;;15.02;41.94;100929.34;4975799;28;45792;-79
2022/05/29 10:12:49;;;;;;;;;3.25;2.00;;;;;15.00;41.87;100921.56;4992002;28;46148;-79
2022/05/29 10:15:36;;;;;;;;;0.25;0.00;;;;;15.03;42.02;100921.28;4997768;28;46638;-79
2022/05/29 10:18:10;;;;;;;;;1.00;1.00;;;;;14.96;42.17;100920.13;5027337;28;45984;-80
2022/05/29 10:20:44;;;;;;;;;1.00;1.00;;;;;14.99;41.74;100926.97;5033931;28;45726;-77
2022/05/29 10:23:27;;;;;;;;;1.00;1.00;;;;;14.91;42.28;100909.13;5033062;28;45600;-78
2022/05/29 10:25:59;;;;;;;;;0.00;0.00;;;;;15.00;42.49;100926.00;5033288;28;45958;-77
2022/05/29 10:28:32;;;;;;;;;1.00;1.00;;;;;15.00;42.50;100924.22;5033110;28;46052;-79
2022/05/29 10:31:00;;;;;;;;;0.00;0.00;;;;;15.03;42.34;100917.81;5015331;28;45786;-78
2022/05/29 10:33:30;;;;;;;;;1.00;1.00;;;;;15.00;42.34;100910.19;5026662;28;45668;-80
2022/05/29 10:36:09;;;;;;;;;1.00;1.00;;;;;14.94;42.29;100900.13;5033599;28;46092;-79
2022/05/29 10:38:36;;;;;;;;;0.25;0.25;;;;;14.99;41.69;100906.69;5033993;28;46648;-78
2022/05/29 10:41:03;;;;;;;;;0.00;0.00;;;;;15.08;42.27;100911.19;5033668;28;46159;-79
2022/05/29 10:43:44;;;;;;;;;3.25;2.50;;;;;15.17;41.62;100906.09;5033756;28;45657;-81
2022/05/29 10:46:15;;;;;;;;;1.50;1.50;;;;;15.26;41.61;100913.22;5034222;28;45751;-79
2022/05/29 10:49:10;;;;;;;;;2.00;1.75;;;;;15.34;41.50;100902.81;5033284;28;45910;-79
2022/05/29 10:51:47;;;;;;;;;1.75;1.75;;;;;15.46;41.42;100884.13;5015143;28;45845;-79
2022/05/29 10:54:24;;;;;;;;;0.50;0.50;;;;;15.55;40.79;100892.28;5032907;28;45714;-79
2022/05/29 10:57:20;;;;;;;;;1.00;1.00;;;;;15.63;40.54;100887.97;5045848;28;46466;-79
2022/05/29 11:00:37;;;;;;;;;1.25;0.50;;;;;15.73;39.54;100888.00;5033545;28;45657;-79
2022/05/29 11:03:33;;;;;;;;;1.00;1.00;;;;;15.79;39.54;100884.81;4999156;28;45707;-78
2022/05/29 11:06:17;;;;;;;;;0.00;0.00;;;;;15.90;39.26;100882.06;4962373;28;46195;-79
2022/05/29 11:09:07;;;;;;;;;0.75;0.25;;;;;15.98;38.96;100884.03;4966120;28;47387;-79
2022/05/29 11:12:02;;;;;;;;;1.00;1.00;;;;;15.94;39.34;100873.72;4970049;28;46296;-78
2022/05/29 11:14:55;;;;;;;;;0.00;0.00;;;;;16.06;39.08;100873.59;4970308;28;45753;-79
2022/05/29 11:17:58;;;;;;;;;1.00;1.00;;;;;16.12;38.80;100876.53;4970717;28;45726;-79
2022/05/29 11:20:48;;;;;;;;;1.00;1.00;;;;;16.22;39.59;100882.66;4912547;28;46794;-80
2022/05/29 11:23:27;;;;;;;;;1.75;1.00;;;;;16.29;39.41;100870.56;4913075;28;48024;-79
2022/05/29 11:26:32;;;;;;;;;1.50;1.00;;;;;16.37;39.73;100857.47;4912521;28;46108;-79
2022/05/29 11:29:19;;;;;;;;;2.00;2.00;;;;;16.38;39.37;100860.94;4904007;28;45788;-80
2022/05/29 11:31:55;;;;;;;;;2.00;2.00;;;;;16.41;39.29;100863.28;4912670;28;46357;-79
2022/05/29 11:34:52;;;;;;;;;0.50;0.50;;;;;16.31;39.41;100843.94;4911780;28;46334;-78
2022/05/29 11:37:26;;;;;;;;;3.00;2.50;;;;;16.32;39.06;100861.50;4910662;28;46214;-79
2022/05/29 11:40:21;;;;;;;;;3.25;3.25;;;;;16.21;39.26;100840.47;4893712;28;45685;-80
2022/05/29 11:43:15;;;;;;;;;2.00;2.00;;;;;16.19;39.38;100853.03;4936594;28;45940;-80
2022/05/29 11:51:39;;;;;;;;;2.00;2.00;;;;;16.13;39.12;100843.00;4969458;28;45884;-80
2022/05/29 11:54:42;;;;;;;;;1.00;1.00;;;;;16.13;39.05;100832.41;4969515;28;45954;-79
2022/05/29 11:57:15;;;;;;;;;1.50;1.25;;;;;16.06;38.90;100816.28;4996213;28;46438;-80
2022/05/29 11:59:52;;;;;;;;;1.00;1.00;;;;;16.15;37.92;100823.38;5042678;28;45927;-78
2022/05/29 12:02:40;;;;;;;;;2.75;1.00;;;;;16.14;38.17;100799.72;5017327;28;45833;-80
2022/05/29 12:05:16;;;;;;;;;1.00;1.00;;;;;16.28;38.70;100812.50;5033048;28;46670;-78
2022/05/29 12:07:52;;;;;;;;;1.00;1.00;;;;;16.32;37.69;100800.69;5042076;28;45982;-78
2022/05/29 12:10:22;;;;;;;;;1.00;1.00;;;;;16.37;37.27;100793.16;5049414;28;45934;-80
2022/05/29 12:12:57;;;;;;;;;2.00;1.00;;;;;16.44;37.73;100788.97;5040320;28;45687;-80
2022/05/29 12:15:28;;;;;;;;;2.00;1.00;;;;;16.53;37.51;100797.84;5038612;28;45763;-79
2022/05/29 12:18:16;;;;;;;;;2.00;1.00;;;;;16.62;37.19;100789.13;5043108;28;45913;-79
2022/05/29 12:20:52;;;;;;;;;1.75;1.00;;;;;16.67;36.30;100800.09;5042264;28;45643;-79
2022/05/29 12:23:24;;;;;;;;;1.75;1.00;;;;;16.81;36.90;100794.31;5033633;28;45836;-78